createdAt,value
2023-04-09T00:00:32.006Z,154.30
2023-04-09T00:03:01.347Z,162.23
2023-04-09T00:05:29.511Z,158.40
2023-04-09T00:07:57.114Z,163.70
2023-04-09T00:10:24.946Z,154.97
2023-04-09T00:12:52.613Z,154.50
2023-04-09T00:15:29.995Z,152.13
2023-04-09T00:17:58.514Z,148.80
2023-04-09T00:20:27.826Z,150.27
2023-04-09T00:22:56.345Z,135.57
2023-04-09T00:25:24.152Z,141.50
2023-04-09T00:27:51.793Z,138.40
2023-04-09T00:30:19.411Z,152.27
2023-04-09T00:32:47.187Z,142.50
2023-04-09T00:35:14.846Z,125.47
2023-04-09T00:37:43.938Z,132.97
2023-04-09T00:40:12.331Z,124.10
2023-04-09T00:42:40.131Z,135.57
2023-04-09T00:45:08.953Z,116.90
2023-04-09T00:47:37.068Z,114.00
2023-04-09T00:50:05.394Z,108.77
2023-04-09T00:52:34.146Z,96.03
2023-04-09T00:55:06.214Z,105.03
2023-04-09T00:57:33.865Z,110.47
2023-04-09T01:00:01.484Z,101.23
2023-04-09T01:02:30.953Z,94.57
2023-04-09T01:04:59.097Z,102.20
2023-04-09T01:07:37.483Z,96.80
2023-04-09T01:10:18.121Z,88.40
2023-04-09T01:12:55.745Z,84.37
2023-04-09T01:15:27.758Z,63.17
2023-04-09T01:18:00.333Z,70.07
2023-04-09T01:20:34.392Z,72.47
2023-04-09T01:23:12.209Z,63.77
2023-04-09T01:25:49.823Z,66.37
2023-04-09T01:28:20.516Z,60.33
2023-04-09T01:30:51.111Z,56.23
2023-04-09T01:33:20.742Z,55.37
2023-04-09T01:35:50.449Z,59.20
2023-04-09T01:38:21.575Z,55.43
2023-04-09T01:40:50.701Z,53.87
2023-04-09T01:43:21.100Z,62.47
2023-04-09T01:45:49.729Z,53.33
2023-04-09T01:48:17.965Z,64.43
2023-04-09T01:50:46.201Z,58.07
2023-04-09T01:53:14.188Z,49.47
2023-04-09T01:55:41.846Z,55.90
2023-04-09T01:58:09.485Z,57.23
2023-04-09T02:00:41.051Z,52.27
2023-04-09T02:03:12.535Z,54.10
2023-04-09T02:05:45.699Z,53.43
2023-04-09T02:08:17.712Z,58.27
2023-04-09T02:10:53.176Z,59.50
2023-04-09T02:13:22.528Z,59.17
2023-04-09T02:15:52.744Z,58.57
2023-04-09T02:18:28.710Z,60.40
2023-04-09T02:20:57.742Z,64.63
2023-04-09T02:23:25.877Z,65.87
2023-04-09T02:25:54.393Z,59.70
2023-04-09T02:28:22.054Z,61.97
2023-04-09T02:30:51.134Z,69.00
2023-04-09T02:33:18.794Z,60.27
2023-04-09T02:35:46.479Z,63.83
2023-04-09T02:38:15.909Z,70.47
2023-04-09T02:40:43.796Z,59.07
2023-04-09T02:43:11.827Z,63.63
2023-04-09T02:45:39.497Z,66.03
2023-04-09T02:48:08.545Z,63.47
2023-04-09T02:50:36.291Z,65.40
2023-04-09T02:53:03.943Z,58.03
2023-04-09T02:55:31.619Z,65.03
2023-04-09T02:57:59.282Z,69.00
2023-04-09T03:00:26.915Z,62.43
2023-04-09T03:02:54.676Z,70.33
2023-04-09T03:05:23.700Z,60.47
2023-04-09T03:07:51.884Z,61.20
2023-04-09T03:10:19.492Z,60.37
2023-04-09T03:12:47.875Z,61.73
2023-04-09T03:15:15.528Z,57.43
2023-04-09T03:17:43.157Z,54.37
2023-04-09T03:20:11.339Z,60.93
2023-04-09T03:22:40.875Z,53.27
2023-04-09T03:25:09.411Z,55.50
2023-04-09T03:27:37.000Z,57.73
2023-04-09T03:30:05.209Z,63.30
2023-04-09T03:32:32.940Z,59.83
2023-04-09T03:35:00.657Z,61.37
2023-04-09T03:37:28.409Z,49.40
2023-04-09T03:39:57.408Z,52.10
2023-04-09T03:42:25.264Z,50.80
2023-04-09T03:44:55.214Z,51.20
2023-04-09T03:47:22.855Z,57.17
2023-04-09T03:49:50.548Z,61.67
2023-04-09T03:52:18.274Z,61.03
2023-04-09T03:54:45.918Z,57.50
2023-04-09T03:57:14.921Z,63.00
2023-04-09T03:59:42.746Z,59.17
2023-04-09T04:02:10.478Z,59.17
2023-04-09T04:04:38.147Z,55.63
2023-04-09T04:07:06.053Z,54.80
2023-04-09T04:09:33.664Z,58.97
2023-04-09T04:12:03.386Z,59.93
2023-04-09T04:14:32.390Z,55.87
2023-04-09T04:17:00.063Z,55.20
2023-04-09T04:19:27.702Z,60.87
2023-04-09T04:21:55.427Z,60.97
2023-04-09T04:24:23.251Z,72.57
2023-04-09T04:26:50.898Z,66.77
2023-04-09T04:29:18.591Z,65.80
2023-04-09T04:31:47.748Z,64.77
2023-04-09T04:34:15.403Z,66.67
2023-04-09T04:36:43.171Z,69.50
2023-04-09T04:39:10.832Z,71.47
2023-04-09T04:41:38.512Z,63.70
2023-04-09T04:44:07.326Z,63.47
2023-04-09T04:46:35.014Z,66.13
2023-04-09T04:49:04.182Z,66.63
2023-04-09T04:51:32.254Z,65.80
2023-04-09T04:53:59.896Z,68.27
2023-04-09T04:56:27.737Z,61.07
2023-04-09T04:58:55.428Z,67.07
2023-04-09T05:01:23.094Z,72.90
2023-04-09T05:03:50.882Z,65.07
2023-04-09T05:06:19.954Z,67.80
2023-04-09T05:08:47.576Z,73.03
2023-04-09T05:11:16.864Z,63.00
2023-04-09T05:13:44.624Z,66.10
2023-04-09T05:16:17.684Z,66.97
2023-04-09T05:18:45.504Z,66.10
2023-04-09T05:21:13.170Z,61.93
2023-04-09T05:23:42.738Z,65.40
2023-04-09T05:26:10.658Z,63.97
2023-04-09T05:28:38.332Z,63.10
2023-04-09T05:31:11.002Z,66.77
2023-04-09T05:33:38.748Z,60.00
2023-04-09T05:36:07.032Z,63.87
2023-04-09T05:38:35.026Z,71.03
2023-04-09T05:41:04.013Z,64.93
2023-04-09T05:43:31.829Z,70.80
2023-04-09T05:45:59.494Z,69.50
2023-04-09T05:48:27.325Z,69.47
2023-04-09T05:51:00.369Z,67.63
2023-04-09T05:53:29.181Z,63.03
2023-04-09T05:55:56.807Z,70.90
2023-04-09T05:58:25.939Z,71.57
2023-04-09T06:00:53.574Z,62.17
2023-04-09T06:03:21.602Z,68.93
2023-04-09T06:05:49.401Z,66.73
2023-04-09T06:08:17.024Z,71.03
2023-04-09T06:10:44.943Z,73.73
2023-04-09T06:13:12.579Z,66.50
2023-04-09T06:15:41.630Z,76.43
2023-04-09T06:18:09.344Z,72.30
2023-04-09T06:20:36.994Z,73.07
2023-04-09T06:23:04.670Z,74.97
2023-04-09T06:25:32.361Z,71.27
2023-04-09T06:28:00.047Z,69.10
2023-04-09T06:30:27.834Z,73.87
2023-04-09T06:32:56.853Z,75.60
2023-04-09T06:35:24.463Z,70.20
2023-04-09T06:37:52.144Z,67.57
2023-04-09T06:40:22.208Z,68.70
2023-04-09T06:42:50.973Z,65.53
2023-04-09T06:45:18.705Z,60.07
2023-04-09T06:47:46.391Z,68.43
2023-04-09T06:50:15.421Z,58.13
2023-04-09T06:52:43.069Z,61.57
2023-04-09T06:55:11.466Z,52.47
2023-04-09T06:57:39.261Z,57.80
2023-04-09T07:00:09.567Z,57.17
2023-04-09T07:02:37.413Z,58.53
2023-04-09T07:05:05.792Z,58.40
2023-04-09T07:07:34.812Z,63.77
2023-04-09T07:10:02.551Z,53.67
2023-04-09T07:12:30.965Z,58.47
2023-04-09T07:14:59.391Z,63.63
2023-04-09T07:17:27.211Z,60.47
2023-04-09T07:19:55.327Z,56.00
2023-04-09T07:22:23.820Z,62.67
2023-04-09T07:24:55.076Z,61.87
2023-04-09T07:27:23.301Z,51.90
2023-04-09T07:29:51.034Z,52.77
2023-04-09T07:32:18.670Z,53.77
2023-04-09T07:34:46.342Z,52.43
2023-04-09T07:37:14.270Z,53.90
2023-04-09T07:39:42.577Z,51.47
2023-04-09T07:42:11.710Z,55.83
2023-04-09T07:44:39.592Z,51.63
2023-04-09T07:47:09.224Z,49.37
2023-04-09T07:49:37.498Z,42.87
2023-04-09T07:52:06.065Z,43.70
2023-04-09T07:54:34.763Z,44.53
2023-04-09T07:57:02.663Z,46.50
2023-04-09T07:59:32.064Z,42.17
2023-04-09T08:02:00.207Z,48.73
2023-04-09T08:04:28.558Z,44.33
2023-04-09T08:06:56.433Z,41.97
2023-04-09T08:09:24.077Z,43.63
2023-04-09T08:11:51.776Z,42.13
2023-04-09T08:14:19.577Z,43.93
2023-04-09T08:16:50.034Z,46.57
2023-04-09T08:19:19.083Z,42.20
2023-04-09T08:21:48.788Z,47.83
2023-04-09T08:24:16.803Z,42.27
2023-04-09T08:26:44.772Z,40.53
2023-04-09T08:29:14.367Z,44.27
2023-04-09T08:31:42.502Z,47.67
2023-04-09T08:34:11.966Z,43.63
2023-04-09T08:36:39.694Z,42.33
2023-04-09T08:39:07.332Z,48.60
2023-04-09T08:41:37.405Z,43.27
2023-04-09T08:44:05.307Z,39.33
2023-04-09T08:46:32.975Z,41.80
2023-04-09T08:49:00.712Z,43.47
2023-04-09T08:51:29.792Z,45.13
2023-04-09T08:54:00.191Z,44.30
2023-04-09T08:56:30.057Z,41.83
2023-04-09T08:58:57.740Z,48.37
2023-04-09T09:01:27.678Z,45.87
2023-04-09T09:03:57.680Z,42.07
2023-04-09T09:06:28.655Z,41.97
2023-04-09T09:09:06.408Z,36.73
2023-04-09T09:11:34.731Z,42.60
2023-04-09T09:14:03.986Z,41.70
2023-04-09T09:16:33.212Z,39.93
2023-04-09T09:19:01.342Z,38.40
2023-04-09T09:21:30.147Z,41.63
2023-04-09T09:23:58.336Z,39.73
2023-04-09T09:26:28.829Z,38.37
2023-04-09T09:28:58.847Z,38.63
2023-04-09T09:31:27.117Z,40.67
2023-04-09T09:33:55.427Z,34.50
2023-04-09T09:36:33.998Z,32.53
2023-04-09T09:39:10.506Z,35.00
2023-04-09T09:41:40.422Z,37.50
2023-04-09T09:44:08.900Z,31.70
2023-04-09T09:46:38.441Z,38.07
2023-04-09T09:49:06.228Z,34.03
2023-04-09T09:51:36.867Z,34.00
2023-04-09T09:54:05.030Z,30.27
2023-04-09T09:56:37.139Z,34.50
2023-04-09T09:59:14.082Z,29.73
2023-04-09T10:01:42.218Z,32.03
2023-04-09T10:04:14.143Z,32.97
2023-04-09T10:06:44.903Z,33.00
2023-04-09T10:09:13.870Z,33.60
2023-04-09T10:11:45.525Z,35.13
2023-04-09T10:14:15.355Z,33.43
2023-04-09T10:16:43.154Z,34.77
2023-04-09T10:19:14.228Z,33.47
2023-04-09T10:21:47.546Z,31.43
2023-04-09T10:24:16.842Z,33.30
2023-04-09T10:26:46.112Z,33.27
2023-04-09T10:29:16.594Z,32.53
2023-04-09T10:31:50.055Z,32.13
2023-04-09T10:34:19.062Z,31.33
2023-04-09T10:36:51.516Z,32.13
2023-04-09T10:39:19.443Z,32.33
2023-04-09T10:41:49.800Z,31.87
2023-04-09T10:44:27.021Z,31.90
2023-04-09T10:46:55.355Z,31.77
2023-04-09T10:49:24.000Z,35.13
2023-04-09T10:51:56.114Z,28.73
2023-04-09T10:54:43.676Z,31.67
2023-04-09T10:57:13.613Z,29.33
2023-04-09T10:59:44.891Z,31.07
2023-04-09T11:02:46.316Z,32.23
2023-04-09T11:05:25.279Z,29.53
2023-04-09T11:07:56.449Z,26.83
2023-04-09T11:10:24.041Z,34.97
2023-04-09T11:12:51.710Z,31.63
2023-04-09T11:15:21.409Z,32.00
2023-04-09T11:17:50.091Z,31.53
2023-04-09T11:20:20.581Z,32.37
2023-04-09T11:22:48.515Z,32.07
2023-04-09T11:25:20.680Z,34.33
2023-04-09T11:27:48.360Z,31.53
2023-04-09T11:30:16.366Z,33.97
2023-04-09T11:32:45.492Z,35.20
2023-04-09T11:35:14.500Z,30.93
2023-04-09T11:37:42.870Z,32.57
2023-04-09T11:40:17.743Z,32.43
2023-04-09T11:42:45.942Z,30.63
2023-04-09T11:45:16.894Z,31.27
2023-04-09T11:47:46.656Z,32.73
2023-04-09T11:50:15.707Z,35.07
2023-04-09T11:52:43.813Z,33.37
2023-04-09T11:55:12.419Z,31.03
2023-04-09T11:57:44.723Z,31.80
2023-04-09T12:00:14.475Z,33.20
2023-04-09T12:02:47.977Z,38.43
2023-04-09T12:05:23.071Z,34.20
2023-04-09T12:07:56.288Z,32.67
2023-04-09T12:10:29.134Z,27.83
2023-04-09T12:13:02.234Z,35.33
2023-04-09T12:15:33.575Z,33.80
2023-04-09T12:18:03.557Z,31.90
2023-04-09T12:20:34.058Z,29.37
2023-04-09T12:23:03.699Z,30.10
2023-04-09T12:25:32.083Z,30.50
2023-04-09T12:27:59.893Z,30.13
2023-04-09T12:30:27.650Z,25.17
2023-04-09T12:32:56.217Z,24.40
2023-04-09T12:35:25.335Z,28.70
2023-04-09T12:37:53.066Z,26.77
2023-04-09T12:40:21.002Z,28.43
2023-04-09T12:42:49.023Z,32.47
2023-04-09T12:45:19.361Z,30.93
2023-04-09T12:47:47.461Z,27.43
2023-04-09T12:50:16.145Z,26.30
2023-04-09T12:52:45.930Z,25.17
2023-04-09T12:55:14.675Z,24.93
2023-04-09T12:57:44.418Z,26.27
2023-04-09T13:00:13.284Z,23.47
2023-04-09T13:02:41.643Z,23.77
2023-04-09T13:05:09.735Z,25.27
2023-04-09T13:07:37.419Z,22.97
2023-04-09T13:10:07.458Z,25.67
2023-04-09T13:12:35.052Z,23.33
2023-04-09T13:15:03.480Z,21.90
2023-04-09T13:17:31.161Z,24.13
2023-04-09T13:19:58.827Z,24.10
2023-04-09T13:22:26.470Z,27.37
2023-04-09T13:24:54.072Z,27.55
2023-04-09T13:27:23.037Z,21.03
2023-04-09T13:29:50.779Z,22.57
2023-04-09T13:32:20.933Z,22.97
2023-04-09T13:34:48.648Z,22.45
2023-04-09T13:37:16.683Z,21.13
2023-04-09T13:39:45.494Z,24.50
2023-04-09T13:42:14.373Z,24.93
2023-04-09T13:44:45.435Z,26.57
2023-04-09T13:47:13.949Z,23.63
2023-04-09T13:49:41.996Z,25.17
2023-04-09T13:52:10.601Z,24.43
2023-04-09T13:54:38.472Z,26.30
2023-04-09T13:57:06.400Z,25.27
2023-04-09T13:59:34.169Z,24.77
2023-04-09T14:02:03.212Z,23.67
2023-04-09T14:04:31.015Z,23.73
2023-04-09T14:06:58.839Z,27.80
2023-04-09T14:09:26.474Z,23.63
2023-04-09T14:11:56.059Z,25.47
2023-04-09T14:14:23.895Z,24.70
2023-04-09T14:16:51.518Z,24.17
2023-04-09T14:19:20.567Z,23.13
2023-04-09T14:21:48.343Z,25.73
2023-04-09T14:24:16.074Z,26.37
2023-04-09T14:26:43.777Z,25.33
2023-04-09T14:29:11.546Z,22.93
2023-04-09T14:31:41.734Z,23.17
2023-04-09T14:34:09.559Z,23.97
2023-04-09T14:36:38.561Z,21.63
2023-04-09T14:39:06.207Z,21.43
2023-04-09T14:41:36.475Z,20.70
2023-04-09T14:44:04.223Z,24.93
2023-04-09T14:46:31.905Z,22.97
2023-04-09T14:48:59.651Z,24.70
2023-04-09T14:51:27.440Z,23.40
2023-04-09T14:53:56.604Z,24.40
2023-04-09T14:56:25.107Z,22.80
2023-04-09T14:58:52.908Z,20.83
2023-04-09T15:01:21.315Z,21.13
2023-04-09T15:03:49.097Z,21.87
2023-04-09T15:06:17.001Z,21.87
2023-04-09T15:08:46.059Z,20.87
2023-04-09T15:11:17.628Z,22.07
2023-04-09T15:13:45.425Z,23.90
2023-04-09T15:16:22.160Z,23.10
2023-04-09T15:18:52.026Z,21.73
2023-04-09T15:21:20.722Z,21.43
2023-04-09T15:23:48.465Z,23.03
2023-04-09T15:26:17.479Z,21.43
2023-04-09T15:28:46.090Z,20.30
2023-04-09T15:31:13.877Z,23.20
2023-04-09T15:33:43.702Z,24.47
2023-04-09T15:36:11.667Z,25.27
2023-04-09T15:38:39.368Z,22.20
2023-04-09T15:41:07.057Z,22.83
2023-04-09T15:43:36.084Z,21.93
2023-04-09T15:46:09.386Z,24.73
2023-04-09T15:48:37.282Z,23.23
2023-04-09T15:51:05.813Z,23.10
2023-04-09T15:53:33.435Z,21.17
2023-04-09T15:56:01.259Z,22.27
2023-04-09T15:58:28.991Z,22.30
2023-04-09T16:00:58.044Z,23.00
2023-04-09T16:03:25.814Z,21.07
2023-04-09T16:05:53.483Z,19.63
2023-04-09T16:08:21.076Z,22.47
2023-04-09T16:10:48.731Z,20.27
2023-04-09T16:13:16.641Z,21.43
2023-04-09T16:15:45.365Z,19.70
2023-04-09T16:18:14.451Z,21.63
2023-04-09T16:20:42.124Z,21.40
2023-04-09T16:23:09.769Z,18.20
2023-04-09T16:25:37.581Z,24.80
2023-04-09T16:28:05.626Z,23.00
2023-04-09T16:30:33.277Z,21.23
2023-04-09T16:33:00.966Z,21.40
2023-04-09T16:35:30.030Z,22.10
2023-04-09T16:37:57.679Z,21.20
2023-04-09T16:40:25.363Z,19.47
2023-04-09T16:42:53.012Z,21.97
2023-04-09T16:45:20.725Z,20.80
2023-04-09T16:47:50.745Z,21.23
2023-04-09T16:50:20.651Z,19.50
2023-04-09T16:52:49.886Z,21.53
2023-04-09T16:55:18.259Z,21.37
2023-04-09T16:57:45.881Z,18.73
2023-04-09T17:00:16.817Z,20.47
2023-04-09T17:02:44.626Z,20.23
2023-04-09T17:05:12.437Z,20.30
2023-04-09T17:07:40.242Z,20.03
2023-04-09T17:10:10.237Z,18.77
2023-04-09T17:12:38.098Z,17.90
2023-04-09T17:15:06.496Z,21.00
2023-04-09T17:17:34.780Z,22.10
2023-04-09T17:20:02.432Z,17.60
2023-04-09T17:22:30.228Z,19.47
2023-04-09T17:24:57.878Z,19.97
2023-04-09T17:27:27.574Z,19.40
2023-04-09T17:29:55.302Z,19.63
2023-04-09T17:32:22.973Z,24.30
2023-04-09T17:34:50.678Z,20.37
2023-04-09T17:37:18.424Z,21.37
2023-04-09T17:39:46.078Z,19.63
2023-04-09T17:42:13.741Z,21.10
2023-04-09T17:44:43.910Z,22.13
2023-04-09T17:47:12.886Z,18.67
2023-04-09T17:49:40.620Z,19.70
2023-04-09T17:52:08.280Z,21.00
2023-04-09T17:54:36.697Z,19.30
2023-04-09T17:57:04.712Z,20.90
2023-04-09T17:59:33.204Z,20.30
2023-04-09T18:02:06.176Z,21.33
2023-04-09T18:04:48.115Z,20.70
2023-04-09T18:07:18.116Z,28.33
2023-04-09T18:09:45.771Z,21.40
2023-04-09T18:12:13.393Z,19.63
2023-04-09T18:14:41.091Z,23.40
2023-04-09T18:17:10.127Z,22.27
2023-04-09T18:19:37.783Z,26.07
2023-04-09T18:22:05.493Z,23.57
2023-04-09T18:24:34.332Z,23.53
2023-04-09T18:27:03.216Z,20.37
2023-04-09T18:29:31.908Z,23.17
2023-04-09T18:31:59.750Z,24.93
2023-04-09T18:34:29.047Z,28.43
2023-04-09T18:36:56.991Z,25.87
2023-04-09T18:39:24.666Z,22.93
2023-04-09T18:41:52.311Z,22.50
2023-04-09T18:44:20.001Z,20.50
2023-04-09T18:46:47.683Z,21.17
2023-04-09T18:49:15.397Z,24.50
2023-04-09T18:51:44.403Z,22.53
2023-04-09T18:54:12.054Z,20.83
2023-04-09T18:56:39.718Z,22.50
2023-04-09T18:59:07.350Z,19.37
2023-04-09T19:01:35.150Z,20.90
2023-04-09T19:04:02.985Z,22.93
2023-04-09T19:06:30.737Z,26.50
2023-04-09T19:08:59.949Z,18.30
2023-04-09T19:11:27.707Z,231.10
2023-04-09T19:13:55.319Z,43.00
2023-04-09T19:16:23.186Z,26.93
2023-04-09T19:18:51.132Z,36.73
2023-04-09T19:21:18.964Z,25.90
2023-04-09T19:23:46.795Z,26.27
2023-04-09T19:26:15.839Z,28.00
2023-04-09T19:28:43.474Z,30.20
2023-04-09T19:31:12.645Z,27.57
2023-04-09T19:33:40.473Z,21.60
2023-04-09T19:36:08.571Z,29.30
2023-04-09T19:38:36.369Z,21.10
2023-04-09T19:41:04.076Z,36.60
2023-04-09T19:43:33.071Z,32.60
2023-04-09T19:46:05.029Z,18.63
2023-04-09T19:48:32.773Z,21.33
2023-04-09T19:51:06.944Z,19.50
2023-04-09T19:53:36.274Z,26.27
2023-04-09T19:56:03.988Z,20.20
2023-04-09T19:58:33.626Z,21.37
2023-04-09T20:01:01.619Z,23.80
2023-04-09T20:03:29.427Z,21.50
2023-04-09T20:05:57.101Z,20.23
2023-04-09T20:08:24.845Z,21.17
2023-04-09T20:10:52.741Z,20.10
2023-04-09T20:13:20.345Z,23.10
2023-04-09T20:15:49.913Z,19.37
2023-04-09T20:18:17.511Z,21.07
2023-04-09T20:20:45.267Z,21.53
2023-04-09T20:23:12.895Z,19.87
2023-04-09T20:25:40.777Z,22.90
2023-04-09T20:28:09.822Z,22.20
2023-04-09T20:30:37.719Z,21.77
2023-04-09T20:33:06.865Z,23.50
2023-04-09T20:35:36.095Z,21.67
2023-04-09T20:38:03.909Z,21.70
2023-04-09T20:40:32.284Z,21.07
2023-04-09T20:42:59.933Z,22.00
2023-04-09T20:45:27.619Z,26.07
2023-04-09T20:47:56.156Z,22.20
2023-04-09T20:50:25.829Z,30.80
2023-04-09T20:52:53.464Z,25.00
2023-04-09T20:55:21.154Z,23.50
2023-04-09T20:57:49.145Z,21.33
2023-04-09T21:00:16.868Z,24.73
2023-04-09T21:02:44.649Z,26.40
2023-04-09T21:05:22.923Z,25.60
2023-04-09T21:07:53.338Z,23.13
2023-04-09T21:10:21.447Z,26.47
2023-04-09T21:12:49.110Z,21.97
2023-04-09T21:15:16.925Z,23.37
2023-04-09T21:17:44.635Z,24.23
2023-04-09T21:20:12.748Z,23.03
2023-04-09T21:22:40.402Z,27.17
2023-04-09T21:25:09.993Z,22.63
2023-04-09T21:27:37.637Z,23.67
2023-04-09T21:30:06.387Z,24.93
2023-04-09T21:32:34.106Z,26.27
2023-04-09T21:35:01.754Z,25.17
2023-04-09T21:37:31.875Z,24.20
2023-04-09T21:39:59.496Z,24.07
2023-04-09T21:42:31.341Z,24.53
2023-04-09T21:44:59.100Z,23.83
2023-04-09T21:47:27.471Z,26.10
2023-04-09T21:49:55.575Z,24.77
2023-04-09T21:52:23.243Z,24.53
2023-04-09T21:54:51.004Z,22.10
2023-04-09T21:57:18.986Z,27.00
2023-04-09T21:59:48.062Z,24.90
2023-04-09T22:02:15.965Z,25.37
2023-04-09T22:04:43.700Z,27.80
2023-04-09T22:07:12.190Z,24.83
2023-04-09T22:09:39.870Z,23.87
2023-04-09T22:12:08.750Z,22.20
2023-04-09T22:14:36.375Z,25.27
2023-04-09T22:17:05.410Z,23.37
2023-04-09T22:19:34.696Z,22.77
2023-04-09T22:22:02.365Z,23.93
2023-04-09T22:24:30.509Z,24.30
2023-04-09T22:26:59.151Z,24.80
2023-04-09T22:29:27.683Z,25.60
2023-04-09T22:31:55.744Z,25.17
2023-04-09T22:34:25.137Z,24.97
2023-04-09T22:36:52.756Z,23.67
2023-04-09T22:39:21.371Z,25.67
2023-04-09T22:41:49.047Z,26.67
2023-04-09T22:44:17.541Z,24.90
2023-04-09T22:46:46.263Z,22.90
2023-04-09T22:49:14.103Z,26.83
2023-04-09T22:51:43.148Z,24.57
2023-04-09T22:54:10.905Z,27.53
2023-04-09T22:56:38.561Z,32.90
2023-04-09T22:59:06.294Z,30.07
2023-04-09T23:01:34.086Z,30.87
2023-04-09T23:04:01.869Z,33.90
2023-04-09T23:06:30.843Z,33.90
2023-04-09T23:09:00.519Z,33.53
2023-04-09T23:11:28.254Z,34.13
2023-04-09T23:13:55.982Z,36.63
2023-04-09T23:16:23.833Z,35.20
2023-04-09T23:18:51.683Z,35.37
2023-04-09T23:21:19.402Z,36.30
2023-04-09T23:23:47.031Z,34.60
2023-04-09T23:26:16.127Z,33.83
2023-04-09T23:28:43.806Z,33.63
2023-04-09T23:31:11.504Z,34.87
2023-04-09T23:33:39.209Z,34.40
2023-04-09T23:36:07.502Z,38.50
2023-04-09T23:38:35.307Z,31.93
2023-04-09T23:41:02.955Z,36.80
2023-04-09T23:43:32.393Z,41.03
2023-04-09T23:46:00.154Z,34.87
2023-04-09T23:48:27.830Z,34.57
2023-04-09T23:50:55.611Z,37.67
2023-04-09T23:53:23.279Z,37.63
2023-04-09T23:55:52.750Z,41.47
2023-04-09T23:58:21.311Z,34.70
